createdAt,value
2018-09-14T00:01:02.625Z,100.00
2018-09-14T00:03:33.791Z,100.00
2018-09-14T00:06:05.569Z,99.80
2018-09-14T00:08:38.071Z,99.77
2018-09-14T00:11:09.278Z,100.00
2018-09-14T00:13:39.691Z,100.00
2018-09-14T00:16:10.057Z,100.00
2018-09-14T00:18:40.895Z,99.80
2018-09-14T00:21:11.225Z,99.86
2018-09-14T00:23:42.641Z,99.82
2018-09-14T00:26:12.909Z,100.00
2018-09-14T00:28:43.593Z,99.46
2018-09-14T00:31:14.629Z,99.27
2018-09-14T00:33:46.557Z,98.94
2018-09-14T00:36:18.266Z,99.65
2018-09-14T00:38:48.945Z,99.18
2018-09-14T00:41:21.379Z,99.22
2018-09-14T00:43:52.999Z,98.58
2018-09-14T00:46:23.414Z,98.13
2018-09-14T00:48:53.631Z,98.87
2018-09-14T00:51:24.751Z,98.61
2018-09-14T00:54:02.092Z,98.57
2018-09-14T00:56:33.129Z,99.12
2018-09-14T00:59:03.539Z,98.18
2018-09-14T01:01:34.986Z,98.92
2018-09-14T01:04:13.011Z,98.63
2018-09-14T01:06:44.357Z,99.21
2018-09-14T01:09:19.755Z,97.97
2018-09-14T01:11:51.457Z,97.94
2018-09-14T01:14:22.977Z,98.11
2018-09-14T01:16:54.669Z,98.61
2018-09-14T01:19:25.534Z,98.20
2018-09-14T01:21:56.222Z,97.93
2018-09-14T01:24:26.590Z,98.27
2018-09-14T01:26:57.700Z,98.47
2018-09-14T01:29:28.304Z,97.88
2018-09-14T01:31:58.575Z,97.61
2018-09-14T01:34:29.266Z,97.31
2018-09-14T01:37:03.327Z,97.45
2018-09-14T01:39:34.172Z,97.46
2018-09-14T01:42:06.444Z,97.42
2018-09-14T01:44:37.716Z,97.44
2018-09-14T01:47:08.634Z,97.79
2018-09-14T01:49:38.897Z,97.99
2018-09-14T01:52:09.406Z,97.32
2018-09-14T01:54:41.666Z,96.69
2018-09-14T01:57:13.435Z,96.81
2018-09-14T01:59:43.790Z,96.80
2018-09-14T02:02:14.622Z,97.04
2018-09-14T02:04:45.084Z,97.17
2018-09-14T02:07:15.501Z,96.85
2018-09-14T02:09:46.054Z,95.96
2018-09-14T02:12:17.852Z,96.85
2018-09-14T02:14:48.648Z,96.74
2018-09-14T02:17:20.168Z,96.69
2018-09-14T02:19:50.305Z,96.29
2018-09-14T02:22:21.764Z,95.88
2018-09-14T02:24:52.621Z,96.11
2018-09-14T02:27:23.080Z,96.78
2018-09-14T02:29:54.923Z,96.84
2018-09-14T02:32:26.174Z,96.70
2018-09-14T02:34:56.675Z,97.09
2018-09-14T02:37:27.198Z,95.82
2018-09-14T02:39:58.484Z,96.71
2018-09-14T02:42:31.086Z,96.04
2018-09-14T04:57:01.082Z,96.04
